首页
METAR-TAF:

METAR-TAF

机场 :

赫维什-巴拉顿国际机场

黑維茲, 匈牙利

纬度: 46-41-11N, 经度: 017-09-33E, 海拔: 124米

当前天气观测

该预报发布于37分钟前的14:45 UTC
风速8节,风向
温度 8°C
湿度 36%
气压 1020 hPa
能见度10公里或以上
1500米以下无云,无积雨云

METAR: LHSM 071445Z AUTO 19008KT CAVOK 08/M06 Q1020 NOSIG

时间: 16:22 (15:22 UTC)

预报

该预报发布于4小时和7分钟前的11:15 UTC
预报有效从07日的 12点(UTC)到 07日的 21点(UTC)
风速9节,风向南转西南
能见度10公里或以上
1500米以下无云,无积雨云
成为
从 07日的 15点(UTC)到 07日的 18点(UTC)
风速2节,风向多变

TAF: LHSM 071115Z 0712/0721 20009KT CAVOK BECMG 0715/0718 VRB02KT

超过4000个机场的气象观测和天气预报(METAR&TAF报告)。

可查询的气象台以黄色和红色小点在地图上表示。

将鼠标移到小点上方,可查看气象台名称。

然后点击查看天气观测和预报。

如需切换地图:点击带黑十字的绿色按钮放大地图;点击带横线的绿色按钮缩小地图;或者点击绿色箭头查看邻近地区的地图。


METAR-TAF: